sensor_id;sensor_type;location;lat;lon;timestamp;P1;durP1;ratioP1;P2;durP2;ratioP2
70929;SDS011;58588;48.102;19.682;2023-02-15T00:02:34;38.80;;;15.33;;
70929;SDS011;58588;48.102;19.682;2023-02-15T00:05:36;38.50;;;13.85;;
70929;SDS011;58588;48.102;19.682;2023-02-15T00:08:38;38.38;;;14.02;;
70929;SDS011;58588;48.102;19.682;2023-02-15T00:11:40;35.85;;;12.52;;
70929;SDS011;58588;48.102;19.682;2023-02-15T00:14:51;39.97;;;13.83;;
70929;SDS011;58588;48.102;19.682;2023-02-15T00:17:53;35.75;;;13.38;;
70929;SDS011;58588;48.102;19.682;2023-02-15T00:20:55;37.03;;;13.10;;
70929;SDS011;58588;48.102;19.682;2023-02-15T00:24:00;34.58;;;13.32;;
70929;SDS011;58588;48.102;19.682;2023-02-15T00:27:03;32.03;;;12.37;;
70929;SDS011;58588;48.102;19.682;2023-02-15T00:30:07;36.47;;;13.07;;
70929;SDS011;58588;48.102;19.682;2023-02-15T00:33:10;34.22;;;11.15;;
70929;SDS011;58588;48.102;19.682;2023-02-15T00:36:13;24.88;;;9.30;;
70929;SDS011;58588;48.102;19.682;2023-02-15T00:39:15;23.97;;;8.47;;
70929;SDS011;58588;48.102;19.682;2023-02-15T00:42:18;27.60;;;9.55;;
70929;SDS011;58588;48.102;19.682;2023-02-15T00:45:22;27.58;;;10.10;;
70929;SDS011;58588;48.102;19.682;2023-02-15T00:48:24;30.38;;;10.02;;
70929;SDS011;58588;48.102;19.682;2023-02-15T00:51:26;27.37;;;11.17;;
70929;SDS011;58588;48.102;19.682;2023-02-15T00:54:28;36.30;;;12.00;;
70929;SDS011;58588;48.102;19.682;2023-02-15T00:57:30;35.35;;;12.48;;
70929;SDS011;58588;48.102;19.682;2023-02-15T01:00:34;35.40;;;11.68;;
70929;SDS011;58588;48.102;19.682;2023-02-15T01:03:36;37.60;;;12.37;;
70929;SDS011;58588;48.102;19.682;2023-02-15T01:06:39;36.60;;;13.70;;
70929;SDS011;58588;48.102;19.682;2023-02-15T01:09:41;37.85;;;15.10;;
70929;SDS011;58588;48.102;19.682;2023-02-15T01:12:43;29.60;;;10.68;;
70929;SDS011;58588;48.102;19.682;2023-02-15T01:15:51;40.03;;;15.02;;
70929;SDS011;58588;48.102;19.682;2023-02-15T01:18:55;38.80;;;13.77;;
70929;SDS011;58588;48.102;19.682;2023-02-15T01:21:57;39.58;;;12.70;;
70929;SDS011;58588;48.102;19.682;2023-02-15T01:24:59;35.13;;;12.07;;
70929;SDS011;58588;48.102;19.682;2023-02-15T01:28:01;33.67;;;12.55;;
70929;SDS011;58588;48.102;19.682;2023-02-15T01:31:06;29.48;;;10.93;;
70929;SDS011;58588;48.102;19.682;2023-02-15T01:34:09;40.38;;;13.38;;
70929;SDS011;58588;48.102;19.682;2023-02-15T01:37:11;42.23;;;16.27;;
70929;SDS011;58588;48.102;19.682;2023-02-15T01:40:15;38.00;;;13.63;;
70929;SDS011;58588;48.102;19.682;2023-02-15T01:43:18;42.88;;;15.23;;
70929;SDS011;58588;48.102;19.682;2023-02-15T01:46:24;34.00;;;12.90;;
70929;SDS011;58588;48.102;19.682;2023-02-15T01:49:30;43.97;;;15.32;;
70929;SDS011;58588;48.102;19.682;2023-02-15T01:52:34;41.50;;;16.38;;
70929;SDS011;58588;48.102;19.682;2023-02-15T01:55:38;37.15;;;12.40;;
70929;SDS011;58588;48.102;19.682;2023-02-15T01:58:44;30.73;;;11.03;;
70929;SDS011;58588;48.102;19.682;2023-02-15T02:01:51;28.67;;;10.30;;
70929;SDS011;58588;48.102;19.682;2023-02-15T02:04:57;27.50;;;9.48;;
70929;SDS011;58588;48.102;19.682;2023-02-15T02:08:03;26.20;;;9.13;;
70929;SDS011;58588;48.102;19.682;2023-02-15T02:11:10;27.27;;;9.85;;
70929;SDS011;58588;48.102;19.682;2023-02-15T02:14:13;27.60;;;9.73;;
70929;SDS011;58588;48.102;19.682;2023-02-15T02:17:17;26.67;;;8.50;;
70929;SDS011;58588;48.102;19.682;2023-02-15T02:20:31;28.23;;;10.17;;
70929;SDS011;58588;48.102;19.682;2023-02-15T02:24:01;32.70;;;12.20;;
70929;SDS011;58588;48.102;19.682;2023-02-15T02:27:29;34.83;;;11.20;;
70929;SDS011;58588;48.102;19.682;2023-02-15T02:34:10;32.25;;;9.75;;
70929;SDS011;58588;48.102;19.682;2023-02-15T02:37:19;30.00;;;9.35;;
70929;SDS011;58588;48.102;19.682;2023-02-15T02:40:28;28.90;;;9.52;;
70929;SDS011;58588;48.102;19.682;2023-02-15T02:43:38;29.92;;;10.35;;
70929;SDS011;58588;48.102;19.682;2023-02-15T02:46:50;30.73;;;10.63;;
70929;SDS011;58588;48.102;19.682;2023-02-15T02:50:00;30.05;;;11.07;;
70929;SDS011;58588;48.102;19.682;2023-02-15T02:53:04;24.07;;;9.67;;
70929;SDS011;58588;48.102;19.682;2023-02-15T02:56:06;33.38;;;12.00;;
70929;SDS011;58588;48.102;19.682;2023-02-15T02:59:18;33.97;;;11.32;;
70929;SDS011;58588;48.102;19.682;2023-02-15T03:02:23;30.90;;;11.47;;
70929;SDS011;58588;48.102;19.682;2023-02-15T03:05:31;34.03;;;11.50;;
70929;SDS011;58588;48.102;19.682;2023-02-15T03:08:42;30.95;;;11.80;;
70929;SDS011;58588;48.102;19.682;2023-02-15T03:11:48;31.40;;;11.05;;
70929;SDS011;58588;48.102;19.682;2023-02-15T03:14:51;36.78;;;13.35;;
70929;SDS011;58588;48.102;19.682;2023-02-15T03:17:57;23.85;;;8.30;;
70929;SDS011;58588;48.102;19.682;2023-02-15T03:21:07;20.95;;;6.95;;
70929;SDS011;58588;48.102;19.682;2023-02-15T03:24:22;26.63;;;9.27;;
70929;SDS011;58588;48.102;19.682;2023-02-15T03:27:27;28.27;;;10.43;;
70929;SDS011;58588;48.102;19.682;2023-02-15T03:30:33;35.92;;;10.35;;
70929;SDS011;58588;48.102;19.682;2023-02-15T03:33:38;43.10;;;13.57;;
70929;SDS011;58588;48.102;19.682;2023-02-15T03:36:47;38.08;;;13.85;;
70929;SDS011;58588;48.102;19.682;2023-02-15T03:39:55;65.55;;;22.25;;
70929;SDS011;58588;48.102;19.682;2023-02-15T03:43:21;58.90;;;20.42;;
70929;SDS011;58588;48.102;19.682;2023-02-15T03:46:32;64.65;;;22.65;;
70929;SDS011;58588;48.102;19.682;2023-02-15T03:49:39;59.70;;;21.63;;
70929;SDS011;58588;48.102;19.682;2023-02-15T03:52:46;60.95;;;20.13;;
70929;SDS011;58588;48.102;19.682;2023-02-15T03:55:48;52.33;;;18.23;;
70929;SDS011;58588;48.102;19.682;2023-02-15T03:58:54;47.35;;;16.15;;
70929;SDS011;58588;48.102;19.682;2023-02-15T04:02:15;30.88;;;11.43;;
70929;SDS011;58588;48.102;19.682;2023-02-15T04:05:22;29.43;;;11.40;;
70929;SDS011;58588;48.102;19.682;2023-02-15T04:08:25;33.10;;;10.38;;
70929;SDS011;58588;48.102;19.682;2023-02-15T04:11:47;40.40;;;13.30;;
70929;SDS011;58588;48.102;19.682;2023-02-15T04:14:48;40.38;;;13.73;;
70929;SDS011;58588;48.102;19.682;2023-02-15T04:18:16;43.35;;;15.20;;
70929;SDS011;58588;48.102;19.682;2023-02-15T04:21:18;45.67;;;13.85;;
70929;SDS011;58588;48.102;19.682;2023-02-15T04:24:40;36.53;;;12.85;;
70929;SDS011;58588;48.102;19.682;2023-02-15T04:27:59;33.07;;;11.23;;
70929;SDS011;58588;48.102;19.682;2023-02-15T04:31:02;34.00;;;11.25;;
70929;SDS011;58588;48.102;19.682;2023-02-15T04:34:04;31.88;;;10.27;;
70929;SDS011;58588;48.102;19.682;2023-02-15T04:37:06;31.97;;;10.67;;
70929;SDS011;58588;48.102;19.682;2023-02-15T04:40:10;32.58;;;8.00;;
70929;SDS011;58588;48.102;19.682;2023-02-15T04:43:13;21.27;;;7.45;;
70929;SDS011;58588;48.102;19.682;2023-02-15T04:46:15;25.23;;;7.95;;
70929;SDS011;58588;48.102;19.682;2023-02-15T04:49:17;26.27;;;7.93;;
70929;SDS011;58588;48.102;19.682;2023-02-15T04:52:19;21.75;;;6.80;;
70929;SDS011;58588;48.102;19.682;2023-02-15T04:55:23;25.48;;;8.32;;
70929;SDS011;58588;48.102;19.682;2023-02-15T04:58:26;28.73;;;8.87;;
70929;SDS011;58588;48.102;19.682;2023-02-15T05:01:29;25.25;;;8.45;;
70929;SDS011;58588;48.102;19.682;2023-02-15T05:04:31;30.88;;;9.32;;
70929;SDS011;58588;48.102;19.682;2023-02-15T05:07:33;30.73;;;9.90;;
70929;SDS011;58588;48.102;19.682;2023-02-15T05:10:36;44.17;;;14.95;;
70929;SDS011;58588;48.102;19.682;2023-02-15T05:13:38;60.20;;;19.33;;
70929;SDS011;58588;48.102;19.682;2023-02-15T05:16:41;53.17;;;18.30;;
70929;SDS011;58588;48.102;19.682;2023-02-15T05:19:43;72.30;;;23.58;;
70929;SDS011;58588;48.102;19.682;2023-02-15T05:22:45;48.67;;;17.73;;
70929;SDS011;58588;48.102;19.682;2023-02-15T05:25:48;46.47;;;15.90;;
70929;SDS011;58588;48.102;19.682;2023-02-15T05:29:09;41.83;;;13.87;;
70929;SDS011;58588;48.102;19.682;2023-02-15T05:32:12;38.75;;;13.52;;
70929;SDS011;58588;48.102;19.682;2023-02-15T05:35:14;37.53;;;12.32;;
70929;SDS011;58588;48.102;19.682;2023-02-15T05:38:17;30.97;;;11.33;;
70929;SDS011;58588;48.102;19.682;2023-02-15T05:41:21;39.40;;;13.05;;
70929;SDS011;58588;48.102;19.682;2023-02-15T05:44:23;33.75;;;12.05;;
70929;SDS011;58588;48.102;19.682;2023-02-15T05:47:25;36.63;;;11.65;;
70929;SDS011;58588;48.102;19.682;2023-02-15T05:50:27;33.28;;;11.48;;
70929;SDS011;58588;48.102;19.682;2023-02-15T05:53:29;32.33;;;11.30;;
70929;SDS011;58588;48.102;19.682;2023-02-15T05:56:34;25.85;;;9.57;;
70929;SDS011;58588;48.102;19.682;2023-02-15T05:59:36;34.23;;;11.23;;
70929;SDS011;58588;48.102;19.682;2023-02-15T06:02:38;30.40;;;10.77;;
70929;SDS011;58588;48.102;19.682;2023-02-15T06:05:40;32.22;;;11.02;;
70929;SDS011;58588;48.102;19.682;2023-02-15T06:08:42;32.60;;;11.87;;
70929;SDS011;58588;48.102;19.682;2023-02-15T06:11:45;46.25;;;14.13;;
70929;SDS011;58588;48.102;19.682;2023-02-15T06:14:47;49.75;;;14.43;;
70929;SDS011;58588;48.102;19.682;2023-02-15T06:17:50;34.95;;;13.90;;
70929;SDS011;58588;48.102;19.682;2023-02-15T06:20:52;48.47;;;16.13;;
70929;SDS011;58588;48.102;19.682;2023-02-15T06:23:54;46.63;;;16.90;;
70929;SDS011;58588;48.102;19.682;2023-02-15T06:26:57;59.13;;;19.30;;
70929;SDS011;58588;48.102;19.682;2023-02-15T06:29:59;54.30;;;19.17;;
70929;SDS011;58588;48.102;19.682;2023-02-15T06:33:01;53.45;;;20.92;;
70929;SDS011;58588;48.102;19.682;2023-02-15T06:36:04;69.10;;;21.40;;
70929;SDS011;58588;48.102;19.682;2023-02-15T06:39:06;72.70;;;23.50;;
70929;SDS011;58588;48.102;19.682;2023-02-15T06:42:12;70.95;;;24.08;;
70929;SDS011;58588;48.102;19.682;2023-02-15T06:45:15;69.80;;;24.20;;
70929;SDS011;58588;48.102;19.682;2023-02-15T06:48:17;64.93;;;22.77;;
70929;SDS011;58588;48.102;19.682;2023-02-15T06:51:19;69.65;;;23.73;;
70929;SDS011;58588;48.102;19.682;2023-02-15T06:54:21;65.32;;;25.08;;
70929;SDS011;58588;48.102;19.682;2023-02-15T06:57:24;84.50;;;27.42;;
70929;SDS011;58588;48.102;19.682;2023-02-15T07:00:26;85.53;;;30.87;;
70929;SDS011;58588;48.102;19.682;2023-02-15T07:03:28;69.00;;;25.08;;
70929;SDS011;58588;48.102;19.682;2023-02-15T07:06:31;76.60;;;28.70;;
70929;SDS011;58588;48.102;19.682;2023-02-15T07:09:34;85.03;;;30.35;;
70929;SDS011;58588;48.102;19.682;2023-02-15T07:12:37;82.13;;;30.38;;
70929;SDS011;58588;48.102;19.682;2023-02-15T07:15:42;87.40;;;29.48;;
70929;SDS011;58588;48.102;19.682;2023-02-15T07:18:45;80.22;;;28.88;;
70929;SDS011;58588;48.102;19.682;2023-02-15T07:21:47;85.60;;;31.93;;
70929;SDS011;58588;48.102;19.682;2023-02-15T07:24:49;102.07;;;35.80;;
70929;SDS011;58588;48.102;19.682;2023-02-15T07:27:57;102.00;;;34.03;;
70929;SDS011;58588;48.102;19.682;2023-02-15T07:31:00;99.13;;;35.70;;
70929;SDS011;58588;48.102;19.682;2023-02-15T07:34:05;106.03;;;40.25;;
70929;SDS011;58588;48.102;19.682;2023-02-15T07:37:07;110.70;;;39.53;;
70929;SDS011;58588;48.102;19.682;2023-02-15T07:40:10;103.10;;;37.70;;
70929;SDS011;58588;48.102;19.682;2023-02-15T07:43:13;92.37;;;34.87;;
70929;SDS011;58588;48.102;19.682;2023-02-15T07:46:16;85.35;;;31.27;;
70929;SDS011;58588;48.102;19.682;2023-02-15T07:49:19;87.30;;;30.98;;
70929;SDS011;58588;48.102;19.682;2023-02-15T07:52:21;78.18;;;28.25;;
70929;SDS011;58588;48.102;19.682;2023-02-15T07:55:23;74.53;;;27.47;;
70929;SDS011;58588;48.102;19.682;2023-02-15T07:58:27;71.10;;;27.73;;
70929;SDS011;58588;48.102;19.682;2023-02-15T08:01:43;67.07;;;24.45;;
70929;SDS011;58588;48.102;19.682;2023-02-15T08:04:45;81.20;;;29.90;;
70929;SDS011;58588;48.102;19.682;2023-02-15T08:07:47;89.85;;;33.53;;
70929;SDS011;58588;48.102;19.682;2023-02-15T08:10:49;97.75;;;35.85;;
70929;SDS011;58588;48.102;19.682;2023-02-15T08:14:10;91.22;;;32.80;;
70929;SDS011;58588;48.102;19.682;2023-02-15T08:17:13;61.85;;;25.10;;
70929;SDS011;58588;48.102;19.682;2023-02-15T08:20:16;69.15;;;24.55;;
70929;SDS011;58588;48.102;19.682;2023-02-15T08:23:18;55.27;;;19.57;;
70929;SDS011;58588;48.102;19.682;2023-02-15T08:26:20;44.35;;;16.92;;
70929;SDS011;58588;48.102;19.682;2023-02-15T08:29:25;40.13;;;15.50;;
70929;SDS011;58588;48.102;19.682;2023-02-15T08:32:28;45.63;;;16.02;;
70929;SDS011;58588;48.102;19.682;2023-02-15T08:35:30;39.65;;;15.60;;
70929;SDS011;58588;48.102;19.682;2023-02-15T08:38:32;37.27;;;14.37;;
70929;SDS011;58588;48.102;19.682;2023-02-15T08:41:35;46.13;;;17.13;;
70929;SDS011;58588;48.102;19.682;2023-02-15T08:44:39;40.42;;;16.88;;
70929;SDS011;58588;48.102;19.682;2023-02-15T08:47:41;44.10;;;17.15;;
70929;SDS011;58588;48.102;19.682;2023-02-15T08:50:43;39.38;;;16.65;;
70929;SDS011;58588;48.102;19.682;2023-02-15T08:54:01;43.60;;;16.90;;
70929;SDS011;58588;48.102;19.682;2023-02-15T08:57:05;50.75;;;18.42;;
70929;SDS011;58588;48.102;19.682;2023-02-15T09:00:09;129.93;;;41.88;;
70929;SDS011;58588;48.102;19.682;2023-02-15T09:03:14;60.80;;;22.73;;
70929;SDS011;58588;48.102;19.682;2023-02-15T09:06:16;55.15;;;20.98;;
70929;SDS011;58588;48.102;19.682;2023-02-15T09:09:19;45.73;;;16.87;;
70929;SDS011;58588;48.102;19.682;2023-02-15T09:12:24;45.93;;;17.03;;
70929;SDS011;58588;48.102;19.682;2023-02-15T09:15:28;58.63;;;22.23;;
70929;SDS011;58588;48.102;19.682;2023-02-15T09:18:30;55.78;;;21.45;;
70929;SDS011;58588;48.102;19.682;2023-02-15T09:21:36;44.88;;;17.10;;
70929;SDS011;58588;48.102;19.682;2023-02-15T09:24:41;71.13;;;25.03;;
70929;SDS011;58588;48.102;19.682;2023-02-15T09:27:43;65.60;;;23.30;;
70929;SDS011;58588;48.102;19.682;2023-02-15T09:30:48;40.67;;;15.95;;
70929;SDS011;58588;48.102;19.682;2023-02-15T09:33:50;42.78;;;14.90;;
70929;SDS011;58588;48.102;19.682;2023-02-15T09:36:52;61.53;;;24.35;;
70929;SDS011;58588;48.102;19.682;2023-02-15T09:39:54;40.93;;;16.80;;
70929;SDS011;58588;48.102;19.682;2023-02-15T09:46:42;37.95;;;14.88;;
70929;SDS011;58588;48.102;19.682;2023-02-15T09:50:00;42.58;;;16.92;;
70929;SDS011;58588;48.102;19.682;2023-02-15T09:53:14;54.42;;;22.45;;
70929;SDS011;58588;48.102;19.682;2023-02-15T09:56:31;42.83;;;16.30;;
70929;SDS011;58588;48.102;19.682;2023-02-15T09:59:40;54.57;;;22.13;;
70929;SDS011;58588;48.102;19.682;2023-02-15T10:03:00;51.30;;;21.08;;
70929;SDS011;58588;48.102;19.682;2023-02-15T10:06:26;33.00;;;13.77;;
70929;SDS011;58588;48.102;19.682;2023-02-15T10:09:37;38.47;;;15.65;;
70929;SDS011;58588;48.102;19.682;2023-02-15T10:12:51;47.03;;;18.00;;
70929;SDS011;58588;48.102;19.682;2023-02-15T10:16:08;48.30;;;17.83;;
70929;SDS011;58588;48.102;19.682;2023-02-15T10:19:20;41.55;;;17.40;;
70929;SDS011;58588;48.102;19.682;2023-02-15T10:22:36;60.33;;;22.88;;
70929;SDS011;58588;48.102;19.682;2023-02-15T10:25:50;45.22;;;19.40;;
70929;SDS011;58588;48.102;19.682;2023-02-15T10:29:00;87.67;;;32.50;;
70929;SDS011;58588;48.102;19.682;2023-02-15T10:32:14;78.70;;;30.47;;
70929;SDS011;58588;48.102;19.682;2023-02-15T10:35:25;78.82;;;30.33;;
70929;SDS011;58588;48.102;19.682;2023-02-15T10:38:38;38.33;;;16.30;;
70929;SDS011;58588;48.102;19.682;2023-02-15T10:41:46;89.53;;;35.92;;
70929;SDS011;58588;48.102;19.682;2023-02-15T10:44:58;46.67;;;18.90;;
70929;SDS011;58588;48.102;19.682;2023-02-15T10:48:12;35.33;;;15.13;;
70929;SDS011;58588;48.102;19.682;2023-02-15T10:51:32;33.33;;;15.43;;
70929;SDS011;58588;48.102;19.682;2023-02-15T10:54:44;42.38;;;18.17;;
70929;SDS011;58588;48.102;19.682;2023-02-15T10:57:51;52.92;;;24.33;;
70929;SDS011;58588;48.102;19.682;2023-02-15T11:01:04;43.07;;;19.17;;
70929;SDS011;58588;48.102;19.682;2023-02-15T11:04:23;39.40;;;17.13;;
70929;SDS011;58588;48.102;19.682;2023-02-15T11:07:54;36.85;;;16.67;;
70929;SDS011;58588;48.102;19.682;2023-02-15T11:10:59;94.30;;;37.33;;
70929;SDS011;58588;48.102;19.682;2023-02-15T11:14:08;66.95;;;28.52;;
70929;SDS011;58588;48.102;19.682;2023-02-15T11:17:16;120.93;;;47.13;;
70929;SDS011;58588;48.102;19.682;2023-02-15T11:20:23;57.27;;;24.27;;
70929;SDS011;58588;48.102;19.682;2023-02-15T11:23:32;63.58;;;25.75;;
70929;SDS011;58588;48.102;19.682;2023-02-15T11:26:38;67.45;;;27.38;;
70929;SDS011;58588;48.102;19.682;2023-02-15T11:29:45;148.63;;;56.47;;
70929;SDS011;58588;48.102;19.682;2023-02-15T11:32:55;41.70;;;18.17;;
70929;SDS011;58588;48.102;19.682;2023-02-15T11:36:03;77.83;;;34.57;;
70929;SDS011;58588;48.102;19.682;2023-02-15T11:39:12;32.40;;;15.48;;
70929;SDS011;58588;48.102;19.682;2023-02-15T11:42:18;67.10;;;29.08;;
70929;SDS011;58588;48.102;19.682;2023-02-15T11:45:25;37.25;;;16.83;;
70929;SDS011;58588;48.102;19.682;2023-02-15T11:48:29;69.77;;;33.17;;
70929;SDS011;58588;48.102;19.682;2023-02-15T11:51:32;91.33;;;40.47;;
70929;SDS011;58588;48.102;19.682;2023-02-15T11:54:39;60.63;;;27.83;;
70929;SDS011;58588;48.102;19.682;2023-02-15T11:57:44;42.90;;;20.65;;
70929;SDS011;58588;48.102;19.682;2023-02-15T12:00:52;49.60;;;24.33;;
70929;SDS011;58588;48.102;19.682;2023-02-15T12:04:00;55.10;;;26.07;;
70929;SDS011;58588;48.102;19.682;2023-02-15T12:07:09;38.17;;;18.07;;
70929;SDS011;58588;48.102;19.682;2023-02-15T12:10:20;45.78;;;21.55;;
70929;SDS011;58588;48.102;19.682;2023-02-15T12:13:26;32.65;;;15.60;;
70929;SDS011;58588;48.102;19.682;2023-02-15T12:16:32;51.47;;;24.73;;
70929;SDS011;58588;48.102;19.682;2023-02-15T12:19:41;36.17;;;17.57;;
70929;SDS011;58588;48.102;19.682;2023-02-15T12:22:46;29.90;;;13.53;;
70929;SDS011;58588;48.102;19.682;2023-02-15T12:25:53;56.67;;;24.52;;
70929;SDS011;58588;48.102;19.682;2023-02-15T12:28:57;27.45;;;12.35;;
70929;SDS011;58588;48.102;19.682;2023-02-15T12:32:02;49.08;;;21.95;;
70929;SDS011;58588;48.102;19.682;2023-02-15T12:35:07;27.10;;;11.90;;
70929;SDS011;58588;48.102;19.682;2023-02-15T12:38:19;25.43;;;10.77;;
70929;SDS011;58588;48.102;19.682;2023-02-15T12:41:26;45.88;;;22.13;;
70929;SDS011;58588;48.102;19.682;2023-02-15T12:44:29;27.83;;;12.65;;
70929;SDS011;58588;48.102;19.682;2023-02-15T12:47:32;25.05;;;10.80;;
70929;SDS011;58588;48.102;19.682;2023-02-15T12:50:36;27.23;;;11.67;;
70929;SDS011;58588;48.102;19.682;2023-02-15T12:53:38;29.00;;;12.53;;
70929;SDS011;58588;48.102;19.682;2023-02-15T12:56:42;36.03;;;17.63;;
70929;SDS011;58588;48.102;19.682;2023-02-15T12:59:47;35.10;;;17.13;;
70929;SDS011;58588;48.102;19.682;2023-02-15T13:02:51;50.35;;;26.08;;
70929;SDS011;58588;48.102;19.682;2023-02-15T13:05:55;33.13;;;16.60;;
70929;SDS011;58588;48.102;19.682;2023-02-15T13:09:05;37.87;;;19.17;;
70929;SDS011;58588;48.102;19.682;2023-02-15T13:12:17;44.15;;;20.80;;
70929;SDS011;58588;48.102;19.682;2023-02-15T13:15:24;27.70;;;12.05;;
70929;SDS011;58588;48.102;19.682;2023-02-15T13:18:31;32.97;;;15.00;;
70929;SDS011;58588;48.102;19.682;2023-02-15T13:21:37;23.97;;;11.00;;
70929;SDS011;58588;48.102;19.682;2023-02-15T13:24:43;29.47;;;13.53;;
70929;SDS011;58588;48.102;19.682;2023-02-15T13:27:50;39.38;;;19.27;;
70929;SDS011;58588;48.102;19.682;2023-02-15T13:30:54;28.20;;;13.00;;
70929;SDS011;58588;48.102;19.682;2023-02-15T13:33:58;27.20;;;13.43;;
70929;SDS011;58588;48.102;19.682;2023-02-15T13:37:05;26.53;;;11.70;;
70929;SDS011;58588;48.102;19.682;2023-02-15T13:40:15;27.57;;;13.57;;
70929;SDS011;58588;48.102;19.682;2023-02-15T13:43:28;33.25;;;17.08;;
70929;SDS011;58588;48.102;19.682;2023-02-15T13:46:44;25.83;;;12.68;;
70929;SDS011;58588;48.102;19.682;2023-02-15T13:50:06;26.58;;;11.85;;
70929;SDS011;58588;48.102;19.682;2023-02-15T13:53:27;29.43;;;13.23;;
70929;SDS011;58588;48.102;19.682;2023-02-15T13:56:46;29.67;;;14.73;;
70929;SDS011;58588;48.102;19.682;2023-02-15T14:00:02;29.02;;;12.98;;
70929;SDS011;58588;48.102;19.682;2023-02-15T14:03:25;32.90;;;14.52;;
70929;SDS011;58588;48.102;19.682;2023-02-15T14:06:54;30.23;;;13.25;;
70929;SDS011;58588;48.102;19.682;2023-02-15T14:10:11;30.40;;;11.77;;
70929;SDS011;58588;48.102;19.682;2023-02-15T14:17:03;29.85;;;13.07;;
70929;SDS011;58588;48.102;19.682;2023-02-15T14:20:27;28.92;;;12.27;;
70929;SDS011;58588;48.102;19.682;2023-02-15T14:23:44;29.75;;;13.02;;
70929;SDS011;58588;48.102;19.682;2023-02-15T14:27:04;27.23;;;13.07;;
70929;SDS011;58588;48.102;19.682;2023-02-15T14:30:22;26.33;;;12.80;;
70929;SDS011;58588;48.102;19.682;2023-02-15T14:33:31;34.50;;;19.17;;
70929;SDS011;58588;48.102;19.682;2023-02-15T14:36:36;26.38;;;12.45;;
70929;SDS011;58588;48.102;19.682;2023-02-15T14:39:42;26.60;;;11.80;;
70929;SDS011;58588;48.102;19.682;2023-02-15T14:43:11;27.43;;;11.73;;
70929;SDS011;58588;48.102;19.682;2023-02-15T14:46:23;27.07;;;11.73;;
70929;SDS011;58588;48.102;19.682;2023-02-15T14:49:33;27.52;;;11.32;;
70929;SDS011;58588;48.102;19.682;2023-02-15T14:52:44;25.63;;;11.35;;
70929;SDS011;58588;48.102;19.682;2023-02-15T14:56:20;24.83;;;11.00;;
70929;SDS011;58588;48.102;19.682;2023-02-15T14:59:27;24.80;;;11.53;;
70929;SDS011;58588;48.102;19.682;2023-02-15T15:02:47;23.27;;;10.40;;
70929;SDS011;58588;48.102;19.682;2023-02-15T15:06:02;23.83;;;11.65;;
70929;SDS011;58588;48.102;19.682;2023-02-15T15:09:12;22.92;;;10.90;;
70929;SDS011;58588;48.102;19.682;2023-02-15T15:12:37;22.50;;;10.60;;
70929;SDS011;58588;48.102;19.682;2023-02-15T15:15:45;24.17;;;11.03;;
70929;SDS011;58588;48.102;19.682;2023-02-15T15:18:49;23.80;;;11.37;;
70929;SDS011;58588;48.102;19.682;2023-02-15T15:21:55;23.75;;;11.70;;
70929;SDS011;58588;48.102;19.682;2023-02-15T15:25:08;31.13;;;14.68;;
70929;SDS011;58588;48.102;19.682;2023-02-15T15:31:47;27.48;;;13.52;;
70929;SDS011;58588;48.102;19.682;2023-02-15T15:35:02;25.03;;;11.93;;
70929;SDS011;58588;48.102;19.682;2023-02-15T15:38:24;37.60;;;18.45;;
70929;SDS011;58588;48.102;19.682;2023-02-15T15:41:40;29.55;;;13.00;;
70929;SDS011;58588;48.102;19.682;2023-02-15T15:45:00;33.63;;;13.80;;
70929;SDS011;58588;48.102;19.682;2023-02-15T15:48:30;29.70;;;12.20;;
70929;SDS011;58588;48.102;19.682;2023-02-15T15:51:35;25.90;;;11.37;;
70929;SDS011;58588;48.102;19.682;2023-02-15T15:54:43;20.95;;;9.52;;
70929;SDS011;58588;48.102;19.682;2023-02-15T15:57:48;28.63;;;14.20;;
70929;SDS011;58588;48.102;19.682;2023-02-15T16:00:54;37.75;;;18.05;;
70929;SDS011;58588;48.102;19.682;2023-02-15T16:03:59;29.10;;;13.13;;
70929;SDS011;58588;48.102;19.682;2023-02-15T16:07:13;39.37;;;15.23;;
70929;SDS011;58588;48.102;19.682;2023-02-15T16:10:24;49.20;;;20.98;;
70929;SDS011;58588;48.102;19.682;2023-02-15T16:13:28;51.53;;;23.08;;
70929;SDS011;58588;48.102;19.682;2023-02-15T16:16:30;49.70;;;19.77;;
70929;SDS011;58588;48.102;19.682;2023-02-15T16:19:32;47.07;;;18.90;;
70929;SDS011;58588;48.102;19.682;2023-02-15T16:22:39;41.43;;;17.60;;
70929;SDS011;58588;48.102;19.682;2023-02-15T16:25:44;81.82;;;30.73;;
70929;SDS011;58588;48.102;19.682;2023-02-15T16:28:54;44.45;;;18.83;;
70929;SDS011;58588;48.102;19.682;2023-02-15T16:31:58;51.10;;;21.73;;
70929;SDS011;58588;48.102;19.682;2023-02-15T16:35:01;42.57;;;18.10;;
70929;SDS011;58588;48.102;19.682;2023-02-15T16:38:09;30.10;;;11.80;;
70929;SDS011;58588;48.102;19.682;2023-02-15T16:41:36;30.08;;;11.38;;
70929;SDS011;58588;48.102;19.682;2023-02-15T16:44:39;31.75;;;13.25;;
70929;SDS011;58588;48.102;19.682;2023-02-15T16:47:42;32.92;;;13.38;;
70929;SDS011;58588;48.102;19.682;2023-02-15T16:50:48;34.17;;;13.50;;
70929;SDS011;58588;48.102;19.682;2023-02-15T16:53:53;32.63;;;13.00;;
70929;SDS011;58588;48.102;19.682;2023-02-15T16:56:58;32.10;;;11.98;;
70929;SDS011;58588;48.102;19.682;2023-02-15T17:00:02;30.02;;;12.38;;
70929;SDS011;58588;48.102;19.682;2023-02-15T17:03:20;36.05;;;13.15;;
70929;SDS011;58588;48.102;19.682;2023-02-15T17:06:25;32.77;;;12.73;;
70929;SDS011;58588;48.102;19.682;2023-02-15T17:09:29;33.10;;;13.23;;
70929;SDS011;58588;48.102;19.682;2023-02-15T17:12:46;35.30;;;12.90;;
70929;SDS011;58588;48.102;19.682;2023-02-15T17:16:07;35.92;;;13.18;;
70929;SDS011;58588;48.102;19.682;2023-02-15T17:19:24;35.22;;;13.00;;
70929;SDS011;58588;48.102;19.682;2023-02-15T17:22:28;33.03;;;13.33;;
70929;SDS011;58588;48.102;19.682;2023-02-15T17:25:34;31.13;;;13.02;;
70929;SDS011;58588;48.102;19.682;2023-02-15T17:28:40;31.98;;;12.55;;
70929;SDS011;58588;48.102;19.682;2023-02-15T17:31:47;33.42;;;13.30;;
70929;SDS011;58588;48.102;19.682;2023-02-15T17:34:59;32.15;;;13.57;;
70929;SDS011;58588;48.102;19.682;2023-02-15T17:38:15;36.63;;;13.90;;
70929;SDS011;58588;48.102;19.682;2023-02-15T17:41:19;40.83;;;16.40;;
70929;SDS011;58588;48.102;19.682;2023-02-15T17:44:23;40.70;;;15.27;;
70929;SDS011;58588;48.102;19.682;2023-02-15T17:47:25;39.63;;;15.35;;
70929;SDS011;58588;48.102;19.682;2023-02-15T17:50:29;47.72;;;18.63;;
70929;SDS011;58588;48.102;19.682;2023-02-15T17:53:32;57.50;;;25.73;;
70929;SDS011;58588;48.102;19.682;2023-02-15T17:56:35;63.15;;;25.67;;
70929;SDS011;58588;48.102;19.682;2023-02-15T17:59:38;62.80;;;24.50;;
70929;SDS011;58588;48.102;19.682;2023-02-15T18:02:58;71.68;;;30.65;;
70929;SDS011;58588;48.102;19.682;2023-02-15T18:06:17;97.35;;;35.72;;
70929;SDS011;58588;48.102;19.682;2023-02-15T18:09:37;84.63;;;34.23;;
70929;SDS011;58588;48.102;19.682;2023-02-15T18:12:56;47.38;;;20.55;;
70929;SDS011;58588;48.102;19.682;2023-02-15T18:16:03;46.50;;;17.15;;